sensor_id;sensor_type;location;lat;lon;timestamp;pressure;altitude;pressure_sealevel;temperature;humidity
71907;BME280;59781;52.090;5.030;2024-01-30T00:01:15;102603.31;;;9.08;100.00
71907;BME280;59781;52.090;5.030;2024-01-30T00:03:41;102588.50;;;9.03;100.00
71907;BME280;59781;52.090;5.030;2024-01-30T00:06:08;102586.94;;;9.11;100.00
71907;BME280;59781;52.090;5.030;2024-01-30T00:08:34;102593.13;;;8.89;100.00
71907;BME280;59781;52.090;5.030;2024-01-30T00:10:59;102584.78;;;9.28;100.00
71907;BME280;59781;52.090;5.030;2024-01-30T00:13:26;102583.69;;;9.41;100.00
71907;BME280;59781;52.090;5.030;2024-01-30T00:15:52;102575.47;;;9.20;100.00
71907;BME280;59781;52.090;5.030;2024-01-30T00:18:17;102580.59;;;9.12;100.00
71907;BME280;59781;52.090;5.030;2024-01-30T00:20:44;102576.84;;;9.26;100.00
71907;BME280;59781;52.090;5.030;2024-01-30T00:23:10;102581.47;;;9.24;100.00
71907;BME280;59781;52.090;5.030;2024-01-30T00:25:35;102582.66;;;8.98;100.00
71907;BME280;59781;52.090;5.030;2024-01-30T00:28:01;102583.47;;;8.87;100.00
71907;BME280;59781;52.090;5.030;2024-01-30T00:30:27;102570.41;;;8.94;100.00
71907;BME280;59781;52.090;5.030;2024-01-30T00:32:53;102577.41;;;8.96;100.00
71907;BME280;59781;52.090;5.030;2024-01-30T00:35:19;102578.56;;;8.81;100.00
71907;BME280;59781;52.090;5.030;2024-01-30T00:37:44;102582.16;;;9.04;100.00
71907;BME280;59781;52.090;5.030;2024-01-30T00:40:10;102577.81;;;8.79;100.00
71907;BME280;59781;52.090;5.030;2024-01-30T00:42:42;102578.94;;;8.76;100.00
71907;BME280;59781;52.090;5.030;2024-01-30T00:45:14;102581.78;;;8.86;100.00
71907;BME280;59781;52.090;5.030;2024-01-30T00:47:40;102578.97;;;8.87;100.00
71907;BME280;59781;52.090;5.030;2024-01-30T00:50:06;102573.94;;;8.94;100.00
71907;BME280;59781;52.090;5.030;2024-01-30T00:52:32;102575.56;;;8.97;100.00
71907;BME280;59781;52.090;5.030;2024-01-30T00:54:59;102581.69;;;9.10;100.00
71907;BME280;59781;52.090;5.030;2024-01-30T00:57:24;102573.63;;;9.10;100.00
71907;BME280;59781;52.090;5.030;2024-01-30T00:59:50;102569.34;;;8.96;100.00
71907;BME280;59781;52.090;5.030;2024-01-30T01:02:16;102553.31;;;8.95;100.00
71907;BME280;59781;52.090;5.030;2024-01-30T01:04:43;102541.00;;;9.03;100.00
71907;BME280;59781;52.090;5.030;2024-01-30T01:07:10;102555.63;;;8.88;100.00
71907;BME280;59781;52.090;5.030;2024-01-30T01:09:36;102547.06;;;8.83;100.00
71907;BME280;59781;52.090;5.030;2024-01-30T01:12:02;102551.22;;;8.76;100.00
71907;BME280;59781;52.090;5.030;2024-01-30T01:14:28;102547.19;;;8.93;100.00
71907;BME280;59781;52.090;5.030;2024-01-30T01:16:54;102561.63;;;9.03;100.00
71907;BME280;59781;52.090;5.030;2024-01-30T01:19:23;102556.59;;;8.76;100.00
71907;BME280;59781;52.090;5.030;2024-01-30T01:21:48;102561.28;;;8.96;100.00
71907;BME280;59781;52.090;5.030;2024-01-30T01:24:14;102561.50;;;8.93;100.00
71907;BME280;59781;52.090;5.030;2024-01-30T01:26:39;102553.34;;;9.06;100.00
71907;BME280;59781;52.090;5.030;2024-01-30T01:29:06;102560.91;;;9.01;100.00
71907;BME280;59781;52.090;5.030;2024-01-30T01:31:36;102546.00;;;8.97;100.00
71907;BME280;59781;52.090;5.030;2024-01-30T01:34:12;102551.59;;;8.94;100.00
71907;BME280;59781;52.090;5.030;2024-01-30T01:36:39;102540.63;;;8.97;100.00
71907;BME280;59781;52.090;5.030;2024-01-30T01:39:05;102547.81;;;8.85;100.00
71907;BME280;59781;52.090;5.030;2024-01-30T01:41:31;102539.25;;;8.91;100.00
71907;BME280;59781;52.090;5.030;2024-01-30T01:43:58;102537.50;;;8.68;100.00
71907;BME280;59781;52.090;5.030;2024-01-30T01:46:27;102551.00;;;8.90;100.00
71907;BME280;59781;52.090;5.030;2024-01-30T01:48:54;102534.63;;;8.93;100.00
71907;BME280;59781;52.090;5.030;2024-01-30T01:51:22;102533.31;;;8.99;100.00
71907;BME280;59781;52.090;5.030;2024-01-30T01:53:48;102530.00;;;8.95;100.00
71907;BME280;59781;52.090;5.030;2024-01-30T01:56:14;102534.56;;;9.17;100.00
71907;BME280;59781;52.090;5.030;2024-01-30T01:58:41;102530.25;;;9.03;100.00
71907;BME280;59781;52.090;5.030;2024-01-30T02:01:07;102524.13;;;8.90;100.00
71907;BME280;59781;52.090;5.030;2024-01-30T02:03:34;102524.16;;;9.12;100.00
71907;BME280;59781;52.090;5.030;2024-01-30T02:06:00;102530.28;;;9.14;100.00
71907;BME280;59781;52.090;5.030;2024-01-30T02:08:27;102540.38;;;9.00;100.00
71907;BME280;59781;52.090;5.030;2024-01-30T02:10:53;102546.00;;;8.85;100.00
71907;BME280;59781;52.090;5.030;2024-01-30T02:13:21;102541.00;;;9.03;100.00
71907;BME280;59781;52.090;5.030;2024-01-30T02:15:52;102544.06;;;9.21;100.00
71907;BME280;59781;52.090;5.030;2024-01-30T02:18:19;102540.50;;;8.98;100.00
71907;BME280;59781;52.090;5.030;2024-01-30T02:20:46;102551.38;;;8.97;100.00
71907;BME280;59781;52.090;5.030;2024-01-30T02:23:15;102544.38;;;8.94;100.00
71907;BME280;59781;52.090;5.030;2024-01-30T02:25:42;102542.94;;;8.90;100.00
71907;BME280;59781;52.090;5.030;2024-01-30T02:28:12;102527.47;;;9.05;100.00
71907;BME280;59781;52.090;5.030;2024-01-30T02:30:43;102502.53;;;9.14;100.00
71907;BME280;59781;52.090;5.030;2024-01-30T02:33:08;102512.19;;;9.05;100.00
71907;BME280;59781;52.090;5.030;2024-01-30T02:35:34;102525.34;;;8.86;100.00
71907;BME280;59781;52.090;5.030;2024-01-30T02:38:00;102522.25;;;8.68;100.00
71907;BME280;59781;52.090;5.030;2024-01-30T02:40:26;102529.22;;;8.82;100.00
71907;BME280;59781;52.090;5.030;2024-01-30T02:42:52;102521.06;;;8.95;100.00
71907;BME280;59781;52.090;5.030;2024-01-30T02:45:18;102522.47;;;8.65;100.00
71907;BME280;59781;52.090;5.030;2024-01-30T02:47:44;102509.47;;;8.94;100.00
71907;BME280;59781;52.090;5.030;2024-01-30T02:50:09;102511.22;;;8.60;100.00
71907;BME280;59781;52.090;5.030;2024-01-30T02:52:35;102516.97;;;8.55;100.00
71907;BME280;59781;52.090;5.030;2024-01-30T02:55:01;102525.13;;;8.65;100.00
71907;BME280;59781;52.090;5.030;2024-01-30T02:57:28;102524.81;;;8.70;100.00
71907;BME280;59781;52.090;5.030;2024-01-30T02:59:53;102514.47;;;8.76;100.00
71907;BME280;59781;52.090;5.030;2024-01-30T03:02:19;102519.84;;;8.87;100.00
71907;BME280;59781;52.090;5.030;2024-01-30T03:04:45;102504.09;;;8.94;100.00
71907;BME280;59781;52.090;5.030;2024-01-30T03:07:10;102501.66;;;8.91;100.00
71907;BME280;59781;52.090;5.030;2024-01-30T03:09:36;102499.41;;;8.74;100.00
71907;BME280;59781;52.090;5.030;2024-01-30T03:12:03;102503.84;;;8.86;100.00
71907;BME280;59781;52.090;5.030;2024-01-30T03:14:31;102506.50;;;8.75;100.00
71907;BME280;59781;52.090;5.030;2024-01-30T03:16:57;102505.06;;;8.93;100.00
71907;BME280;59781;52.090;5.030;2024-01-30T03:19:23;102492.03;;;9.11;100.00
71907;BME280;59781;52.090;5.030;2024-01-30T03:21:48;102490.19;;;9.11;100.00
71907;BME280;59781;52.090;5.030;2024-01-30T03:24:14;102488.34;;;9.23;100.00
71907;BME280;59781;52.090;5.030;2024-01-30T03:26:39;102482.63;;;9.28;100.00
71907;BME280;59781;52.090;5.030;2024-01-30T03:29:05;102470.50;;;9.22;100.00
71907;BME280;59781;52.090;5.030;2024-01-30T03:31:30;102468.47;;;9.14;100.00
71907;BME280;59781;52.090;5.030;2024-01-30T03:33:56;102465.13;;;8.88;100.00
71907;BME280;59781;52.090;5.030;2024-01-30T03:36:21;102467.34;;;9.06;100.00
71907;BME280;59781;52.090;5.030;2024-01-30T03:38:47;102465.53;;;8.95;100.00
71907;BME280;59781;52.090;5.030;2024-01-30T03:41:12;102476.88;;;8.87;100.00
71907;BME280;59781;52.090;5.030;2024-01-30T03:43:38;102484.38;;;8.71;100.00
71907;BME280;59781;52.090;5.030;2024-01-30T03:46:03;102480.84;;;8.71;100.00
71907;BME280;59781;52.090;5.030;2024-01-30T03:48:29;102481.13;;;8.79;100.00
71907;BME280;59781;52.090;5.030;2024-01-30T03:50:55;102477.91;;;8.74;100.00
71907;BME280;59781;52.090;5.030;2024-01-30T03:53:21;102483.38;;;8.50;100.00
71907;BME280;59781;52.090;5.030;2024-01-30T03:55:47;102492.59;;;8.81;100.00
71907;BME280;59781;52.090;5.030;2024-01-30T03:58:13;102490.63;;;8.83;100.00
71907;BME280;59781;52.090;5.030;2024-01-30T04:00:38;102494.09;;;8.85;100.00
71907;BME280;59781;52.090;5.030;2024-01-30T04:03:04;102491.88;;;8.79;100.00
71907;BME280;59781;52.090;5.030;2024-01-30T04:05:30;102484.06;;;8.76;100.00
71907;BME280;59781;52.090;5.030;2024-01-30T04:07:56;102480.25;;;8.78;100.00
71907;BME280;59781;52.090;5.030;2024-01-30T04:10:21;102484.34;;;8.95;100.00
71907;BME280;59781;52.090;5.030;2024-01-30T04:12:47;102480.78;;;9.06;100.00
71907;BME280;59781;52.090;5.030;2024-01-30T04:15:12;102480.53;;;8.86;100.00
71907;BME280;59781;52.090;5.030;2024-01-30T04:17:39;102477.81;;;8.75;100.00
71907;BME280;59781;52.090;5.030;2024-01-30T04:20:05;102465.00;;;8.90;100.00
71907;BME280;59781;52.090;5.030;2024-01-30T04:22:31;102466.84;;;9.12;100.00
71907;BME280;59781;52.090;5.030;2024-01-30T04:24:57;102470.78;;;8.50;100.00
71907;BME280;59781;52.090;5.030;2024-01-30T04:27:22;102462.59;;;8.98;100.00
71907;BME280;59781;52.090;5.030;2024-01-30T04:29:48;102460.00;;;8.85;100.00
71907;BME280;59781;52.090;5.030;2024-01-30T04:32:14;102448.50;;;8.95;100.00
71907;BME280;59781;52.090;5.030;2024-01-30T04:34:39;102456.69;;;8.71;100.00
71907;BME280;59781;52.090;5.030;2024-01-30T04:37:05;102462.19;;;8.80;100.00
71907;BME280;59781;52.090;5.030;2024-01-30T04:39:32;102455.84;;;9.04;100.00
71907;BME280;59781;52.090;5.030;2024-01-30T04:41:58;102461.22;;;8.93;100.00
71907;BME280;59781;52.090;5.030;2024-01-30T04:44:24;102453.06;;;9.05;100.00
71907;BME280;59781;52.090;5.030;2024-01-30T04:46:50;102457.34;;;9.19;100.00
71907;BME280;59781;52.090;5.030;2024-01-30T04:49:15;102440.22;;;9.09;100.00
71907;BME280;59781;52.090;5.030;2024-01-30T04:51:41;102445.34;;;9.01;100.00
71907;BME280;59781;52.090;5.030;2024-01-30T04:54:06;102453.78;;;9.07;100.00
71907;BME280;59781;52.090;5.030;2024-01-30T04:56:32;102449.53;;;9.05;100.00
71907;BME280;59781;52.090;5.030;2024-01-30T04:58:57;102449.28;;;8.97;100.00
71907;BME280;59781;52.090;5.030;2024-01-30T05:01:23;102454.78;;;9.06;100.00
71907;BME280;59781;52.090;5.030;2024-01-30T05:03:48;102442.19;;;9.07;100.00
71907;BME280;59781;52.090;5.030;2024-01-30T05:06:24;102446.09;;;9.03;100.00
71907;BME280;59781;52.090;5.030;2024-01-30T05:08:49;102452.81;;;8.86;100.00
71907;BME280;59781;52.090;5.030;2024-01-30T05:11:15;102448.16;;;8.77;100.00
71907;BME280;59781;52.090;5.030;2024-01-30T05:13:40;102448.38;;;8.74;100.00
71907;BME280;59781;52.090;5.030;2024-01-30T05:16:06;102446.72;;;8.95;100.00
71907;BME280;59781;52.090;5.030;2024-01-30T05:18:32;102438.50;;;9.19;100.00
71907;BME280;59781;52.090;5.030;2024-01-30T05:20:57;102431.03;;;9.34;100.00
71907;BME280;59781;52.090;5.030;2024-01-30T05:23:23;102439.47;;;9.29;100.00
71907;BME280;59781;52.090;5.030;2024-01-30T05:25:48;102437.91;;;9.27;100.00
71907;BME280;59781;52.090;5.030;2024-01-30T05:28:14;102440.94;;;9.56;100.00
71907;BME280;59781;52.090;5.030;2024-01-30T05:30:39;102447.16;;;9.34;100.00
71907;BME280;59781;52.090;5.030;2024-01-30T05:33:05;102444.94;;;9.61;100.00
71907;BME280;59781;52.090;5.030;2024-01-30T05:35:30;102441.91;;;9.43;100.00
71907;BME280;59781;52.090;5.030;2024-01-30T05:37:56;102437.50;;;9.42;100.00
71907;BME280;59781;52.090;5.030;2024-01-30T05:40:22;102443.50;;;9.46;100.00
71907;BME280;59781;52.090;5.030;2024-01-30T05:42:47;102439.72;;;9.37;100.00
71907;BME280;59781;52.090;5.030;2024-01-30T05:45:13;102453.31;;;9.36;100.00
71907;BME280;59781;52.090;5.030;2024-01-30T05:47:39;102443.00;;;9.41;100.00
71907;BME280;59781;52.090;5.030;2024-01-30T05:50:05;102449.75;;;9.35;100.00
71907;BME280;59781;52.090;5.030;2024-01-30T05:52:31;102451.34;;;9.38;100.00
71907;BME280;59781;52.090;5.030;2024-01-30T05:54:56;102455.72;;;9.39;100.00
71907;BME280;59781;52.090;5.030;2024-01-30T05:57:22;102448.03;;;9.23;100.00
71907;BME280;59781;52.090;5.030;2024-01-30T05:59:47;102447.97;;;9.68;100.00
71907;BME280;59781;52.090;5.030;2024-01-30T06:02:13;102450.88;;;9.87;100.00
71907;BME280;59781;52.090;5.030;2024-01-30T06:04:39;102448.88;;;9.57;100.00
71907;BME280;59781;52.090;5.030;2024-01-30T06:07:04;102451.41;;;9.59;100.00
71907;BME280;59781;52.090;5.030;2024-01-30T06:09:31;102445.97;;;9.81;100.00
71907;BME280;59781;52.090;5.030;2024-01-30T06:11:58;102448.03;;;9.89;100.00
71907;BME280;59781;52.090;5.030;2024-01-30T06:14:23;102451.88;;;9.75;100.00
71907;BME280;59781;52.090;5.030;2024-01-30T06:16:49;102446.50;;;9.75;100.00
71907;BME280;59781;52.090;5.030;2024-01-30T06:19:15;102439.56;;;9.61;100.00
71907;BME280;59781;52.090;5.030;2024-01-30T06:21:40;102440.31;;;9.95;100.00
71907;BME280;59781;52.090;5.030;2024-01-30T06:24:06;102445.84;;;9.83;100.00
71907;BME280;59781;52.090;5.030;2024-01-30T06:26:32;102460.53;;;9.78;100.00
71907;BME280;59781;52.090;5.030;2024-01-30T06:28:57;102453.53;;;9.55;100.00
71907;BME280;59781;52.090;5.030;2024-01-30T06:31:23;102462.19;;;9.59;100.00
71907;BME280;59781;52.090;5.030;2024-01-30T06:33:49;102467.00;;;9.87;100.00
71907;BME280;59781;52.090;5.030;2024-01-30T06:36:15;102462.84;;;9.83;100.00
71907;BME280;59781;52.090;5.030;2024-01-30T06:38:41;102470.69;;;10.18;100.00
71907;BME280;59781;52.090;5.030;2024-01-30T06:41:06;102456.38;;;10.18;100.00
71907;BME280;59781;52.090;5.030;2024-01-30T06:43:32;102458.59;;;9.69;100.00
71907;BME280;59781;52.090;5.030;2024-01-30T06:45:58;102458.69;;;9.90;100.00
71907;BME280;59781;52.090;5.030;2024-01-30T06:48:25;102463.34;;;9.88;100.00
71907;BME280;59781;52.090;5.030;2024-01-30T06:50:53;102456.88;;;10.12;100.00
71907;BME280;59781;52.090;5.030;2024-01-30T06:53:19;102469.94;;;9.95;100.00
71907;BME280;59781;52.090;5.030;2024-01-30T06:55:44;102462.34;;;9.89;100.00
71907;BME280;59781;52.090;5.030;2024-01-30T06:58:10;102478.09;;;9.51;100.00
71907;BME280;59781;52.090;5.030;2024-01-30T07:00:35;102461.03;;;9.84;100.00
71907;BME280;59781;52.090;5.030;2024-01-30T07:03:01;102462.25;;;10.12;100.00
71907;BME280;59781;52.090;5.030;2024-01-30T07:05:27;102465.78;;;9.80;100.00
71907;BME280;59781;52.090;5.030;2024-01-30T07:07:52;102460.38;;;9.91;100.00
71907;BME280;59781;52.090;5.030;2024-01-30T07:10:18;102465.34;;;9.53;100.00
71907;BME280;59781;52.090;5.030;2024-01-30T07:12:44;102467.44;;;9.60;100.00
71907;BME280;59781;52.090;5.030;2024-01-30T07:15:10;102469.34;;;9.81;100.00
71907;BME280;59781;52.090;5.030;2024-01-30T07:17:35;102476.34;;;9.61;100.00
71907;BME280;59781;52.090;5.030;2024-01-30T07:20:01;102471.25;;;10.01;100.00
71907;BME280;59781;52.090;5.030;2024-01-30T07:22:29;102474.59;;;9.82;100.00
71907;BME280;59781;52.090;5.030;2024-01-30T07:24:55;102483.75;;;9.91;100.00
71907;BME280;59781;52.090;5.030;2024-01-30T07:27:21;102482.66;;;9.93;100.00
71907;BME280;59781;52.090;5.030;2024-01-30T07:29:47;102494.25;;;10.05;100.00
71907;BME280;59781;52.090;5.030;2024-01-30T07:32:12;102492.56;;;9.82;100.00
71907;BME280;59781;52.090;5.030;2024-01-30T07:34:38;102501.78;;;10.11;100.00
71907;BME280;59781;52.090;5.030;2024-01-30T07:37:03;102494.06;;;9.86;100.00
71907;BME280;59781;52.090;5.030;2024-01-30T07:39:29;102499.84;;;10.13;100.00
71907;BME280;59781;52.090;5.030;2024-01-30T07:41:54;102497.81;;;9.83;100.00
71907;BME280;59781;52.090;5.030;2024-01-30T07:44:20;102499.56;;;9.84;100.00
71907;BME280;59781;52.090;5.030;2024-01-30T07:46:46;102502.22;;;9.95;100.00
71907;BME280;59781;52.090;5.030;2024-01-30T07:49:11;102500.13;;;9.99;100.00
71907;BME280;59781;52.090;5.030;2024-01-30T07:51:39;102503.84;;;10.19;100.00
71907;BME280;59781;52.090;5.030;2024-01-30T07:54:05;102504.09;;;10.27;100.00
71907;BME280;59781;52.090;5.030;2024-01-30T07:56:30;102504.84;;;10.18;100.00
71907;BME280;59781;52.090;5.030;2024-01-30T07:58:56;102499.31;;;10.51;100.00
71907;BME280;59781;52.090;5.030;2024-01-30T08:01:21;102503.59;;;10.33;100.00
71907;BME280;59781;52.090;5.030;2024-01-30T08:03:47;102503.25;;;10.26;100.00
71907;BME280;59781;52.090;5.030;2024-01-30T08:06:12;102506.53;;;10.30;100.00
71907;BME280;59781;52.090;5.030;2024-01-30T08:08:38;102502.63;;;10.34;100.00
71907;BME280;59781;52.090;5.030;2024-01-30T08:11:03;102507.81;;;10.47;100.00
71907;BME280;59781;52.090;5.030;2024-01-30T08:13:29;102510.59;;;10.56;100.00
71907;BME280;59781;52.090;5.030;2024-01-30T08:15:55;102513.34;;;10.66;100.00
71907;BME280;59781;52.090;5.030;2024-01-30T08:18:20;102519.25;;;10.60;100.00
71907;BME280;59781;52.090;5.030;2024-01-30T08:20:46;102519.59;;;10.67;100.00
71907;BME280;59781;52.090;5.030;2024-01-30T08:23:11;102508.22;;;10.63;100.00
71907;BME280;59781;52.090;5.030;2024-01-30T08:25:37;102509.38;;;10.91;100.00
71907;BME280;59781;52.090;5.030;2024-01-30T08:28:03;102504.63;;;10.74;100.00
71907;BME280;59781;52.090;5.030;2024-01-30T08:30:29;102511.56;;;10.55;100.00
71907;BME280;59781;52.090;5.030;2024-01-30T08:32:54;102515.69;;;10.80;100.00
71907;BME280;59781;52.090;5.030;2024-01-30T08:35:20;102511.22;;;10.90;100.00
71907;BME280;59781;52.090;5.030;2024-01-30T08:37:46;102509.59;;;10.99;100.00
71907;BME280;59781;52.090;5.030;2024-01-30T08:40:11;102521.56;;;11.06;100.00
71907;BME280;59781;52.090;5.030;2024-01-30T08:42:37;102520.88;;;11.14;100.00
71907;BME280;59781;52.090;5.030;2024-01-30T08:45:03;102521.81;;;11.03;100.00
71907;BME280;59781;52.090;5.030;2024-01-30T08:47:30;102507.75;;;11.30;100.00
71907;BME280;59781;52.090;5.030;2024-01-30T08:49:56;102509.09;;;11.45;100.00
71907;BME280;59781;52.090;5.030;2024-01-30T08:52:21;102524.88;;;11.19;100.00
71907;BME280;59781;52.090;5.030;2024-01-30T08:54:47;102520.00;;;11.34;100.00
71907;BME280;59781;52.090;5.030;2024-01-30T08:57:13;102526.19;;;11.25;100.00
71907;BME280;59781;52.090;5.030;2024-01-30T08:59:38;102528.84;;;11.15;100.00
71907;BME280;59781;52.090;5.030;2024-01-30T09:02:04;102523.41;;;11.36;100.00
71907;BME280;59781;52.090;5.030;2024-01-30T09:04:30;102519.19;;;11.43;100.00
71907;BME280;59781;52.090;5.030;2024-01-30T09:06:55;102517.69;;;11.60;100.00
71907;BME280;59781;52.090;5.030;2024-01-30T09:09:21;102525.88;;;11.49;100.00
71907;BME280;59781;52.090;5.030;2024-01-30T09:11:47;102536.22;;;11.13;100.00
71907;BME280;59781;52.090;5.030;2024-01-30T09:14:12;102540.81;;;11.23;100.00
71907;BME280;59781;52.090;5.030;2024-01-30T09:16:38;102534.47;;;11.03;100.00
71907;BME280;59781;52.090;5.030;2024-01-30T09:19:04;102532.97;;;11.19;100.00
71907;BME280;59781;52.090;5.030;2024-01-30T09:21:29;102548.56;;;11.16;100.00
71907;BME280;59781;52.090;5.030;2024-01-30T09:24:02;102539.50;;;11.47;100.00
71907;BME280;59781;52.090;5.030;2024-01-30T09:26:28;102535.22;;;11.45;100.00
71907;BME280;59781;52.090;5.030;2024-01-30T09:28:53;102531.22;;;11.39;100.00
71907;BME280;59781;52.090;5.030;2024-01-30T09:31:19;102531.91;;;11.32;100.00
71907;BME280;59781;52.090;5.030;2024-01-30T09:33:45;102531.06;;;11.62;100.00
71907;BME280;59781;52.090;5.030;2024-01-30T09:36:12;102539.25;;;11.81;100.00
71907;BME280;59781;52.090;5.030;2024-01-30T09:38:40;102537.81;;;11.87;100.00
71907;BME280;59781;52.090;5.030;2024-01-30T09:41:09;102539.81;;;11.85;100.00
71907;BME280;59781;52.090;5.030;2024-01-30T09:43:38;102554.09;;;11.75;100.00
71907;BME280;59781;52.090;5.030;2024-01-30T09:46:05;102555.50;;;11.70;100.00
71907;BME280;59781;52.090;5.030;2024-01-30T09:48:34;102557.16;;;11.82;100.00
71907;BME280;59781;52.090;5.030;2024-01-30T09:51:00;102562.16;;;11.66;100.00
71907;BME280;59781;52.090;5.030;2024-01-30T09:53:27;102565.13;;;11.93;100.00
71907;BME280;59781;52.090;5.030;2024-01-30T09:55:53;102565.19;;;11.72;100.00
71907;BME280;59781;52.090;5.030;2024-01-30T09:58:18;102562.34;;;12.14;100.00
71907;BME280;59781;52.090;5.030;2024-01-30T10:00:44;102563.66;;;12.29;100.00
71907;BME280;59781;52.090;5.030;2024-01-30T10:03:09;102558.97;;;12.51;100.00
71907;BME280;59781;52.090;5.030;2024-01-30T10:05:36;102559.19;;;12.09;100.00
71907;BME280;59781;52.090;5.030;2024-01-30T10:08:07;102560.09;;;12.19;100.00
71907;BME280;59781;52.090;5.030;2024-01-30T10:10:35;102565.19;;;12.13;100.00
71907;BME280;59781;52.090;5.030;2024-01-30T10:13:01;102571.88;;;12.28;100.00
71907;BME280;59781;52.090;5.030;2024-01-30T10:15:28;102584.53;;;12.37;100.00
71907;BME280;59781;52.090;5.030;2024-01-30T10:17:54;102566.22;;;12.50;100.00
71907;BME280;59781;52.090;5.030;2024-01-30T10:20:19;102560.09;;;12.19;100.00
71907;BME280;59781;52.090;5.030;2024-01-30T10:22:48;102553.78;;;11.90;100.00
71907;BME280;59781;52.090;5.030;2024-01-30T10:25:14;102574.94;;;11.94;100.00
71907;BME280;59781;52.090;5.030;2024-01-30T10:27:40;102567.84;;;11.93;100.00
71907;BME280;59781;52.090;5.030;2024-01-30T10:30:07;102568.19;;;12.39;100.00
71907;BME280;59781;52.090;5.030;2024-01-30T10:32:33;102570.03;;;12.57;100.00
71907;BME280;59781;52.090;5.030;2024-01-30T10:34:58;102585.47;;;12.07;100.00
71907;BME280;59781;52.090;5.030;2024-01-30T10:37:25;102581.75;;;11.98;100.00
71907;BME280;59781;52.090;5.030;2024-01-30T10:39:53;102596.22;;;11.88;100.00
71907;BME280;59781;52.090;5.030;2024-01-30T10:42:26;102596.03;;;11.80;100.00
71907;BME280;59781;52.090;5.030;2024-01-30T10:45:02;102575.47;;;11.88;100.00
71907;BME280;59781;52.090;5.030;2024-01-30T10:47:34;102587.06;;;11.79;100.00
71907;BME280;59781;52.090;5.030;2024-01-30T10:50:02;102588.63;;;12.12;100.00
71907;BME280;59781;52.090;5.030;2024-01-30T10:52:29;102575.91;;;12.62;100.00
71907;BME280;59781;52.090;5.030;2024-01-30T10:54:56;102576.50;;;11.97;100.00
71907;BME280;59781;52.090;5.030;2024-01-30T10:57:23;102591.03;;;12.05;100.00
71907;BME280;59781;52.090;5.030;2024-01-30T10:59:52;102605.09;;;11.78;100.00
71907;BME280;59781;52.090;5.030;2024-01-30T11:02:19;102597.63;;;11.82;100.00
71907;BME280;59781;52.090;5.030;2024-01-30T11:04:46;102592.75;;;11.76;100.00
71907;BME280;59781;52.090;5.030;2024-01-30T11:07:31;102602.41;;;11.78;100.00
71907;BME280;59781;52.090;5.030;2024-01-30T11:12:24;102614.28;;;11.36;100.00
71907;BME280;59781;52.090;5.030;2024-01-30T11:15:07;102618.09;;;11.12;100.00
71907;BME280;59781;52.090;5.030;2024-01-30T11:20:16;102618.63;;;11.06;100.00
71907;BME280;59781;52.090;5.030;2024-01-30T11:22:46;102612.44;;;11.15;100.00
71907;BME280;59781;52.090;5.030;2024-01-30T11:25:16;102620.41;;;11.17;100.00
71907;BME280;59781;52.090;5.030;2024-01-30T11:27:43;102623.09;;;11.17;100.00
71907;BME280;59781;52.090;5.030;2024-01-30T11:30:09;102625.13;;;11.04;100.00
71907;BME280;59781;52.090;5.030;2024-01-30T11:32:35;102610.44;;;11.38;100.00
71907;BME280;59781;52.090;5.030;2024-01-30T11:35:03;102618.94;;;11.55;100.00
71907;BME280;59781;52.090;5.030;2024-01-30T11:37:31;102607.25;;;11.24;100.00
71907;BME280;59781;52.090;5.030;2024-01-30T11:39:56;102614.78;;;11.09;100.00
71907;BME280;59781;52.090;5.030;2024-01-30T11:42:24;102621.19;;;11.08;100.00
71907;BME280;59781;52.090;5.030;2024-01-30T11:44:52;102626.84;;;11.26;100.00
71907;BME280;59781;52.090;5.030;2024-01-30T11:47:17;102633.47;;;11.01;100.00
71907;BME280;59781;52.090;5.030;2024-01-30T11:49:43;102627.63;;;10.63;100.00
71907;BME280;59781;52.090;5.030;2024-01-30T11:52:10;102647.16;;;10.45;100.00
71907;BME280;59781;52.090;5.030;2024-01-30T11:54:40;102642.66;;;10.34;100.00
71907;BME280;59781;52.090;5.030;2024-01-30T11:57:05;102645.81;;;10.39;100.00
71907;BME280;59781;52.090;5.030;2024-01-30T11:59:31;102644.59;;;10.10;100.00
71907;BME280;59781;52.090;5.030;2024-01-30T12:01:56;102656.47;;;10.07;100.00
71907;BME280;59781;52.090;5.030;2024-01-30T12:04:22;102654.78;;;10.06;100.00
71907;BME280;59781;52.090;5.030;2024-01-30T12:06:51;102664.56;;;10.07;100.00
71907;BME280;59781;52.090;5.030;2024-01-30T12:09:17;102665.78;;;10.03;100.00
71907;BME280;59781;52.090;5.030;2024-01-30T12:11:49;102665.66;;;10.16;100.00
71907;BME280;59781;52.090;5.030;2024-01-30T12:14:18;102655.88;;;10.15;100.00
71907;BME280;59781;52.090;5.030;2024-01-30T12:16:48;102669.69;;;10.10;100.00
71907;BME280;59781;52.090;5.030;2024-01-30T12:19:25;102661.47;;;10.12;100.00
71907;BME280;59781;52.090;5.030;2024-01-30T12:21:57;102661.63;;;10.44;100.00
71907;BME280;59781;52.090;5.030;2024-01-30T12:24:25;102656.94;;;10.46;100.00
71907;BME280;59781;52.090;5.030;2024-01-30T12:26:51;102655.28;;;10.33;100.00
71907;BME280;59781;52.090;5.030;2024-01-30T12:29:17;102654.75;;;10.40;100.00
71907;BME280;59781;52.090;5.030;2024-01-30T12:31:42;102653.66;;;10.42;100.00
71907;BME280;59781;52.090;5.030;2024-01-30T12:34:09;102653.25;;;10.58;100.00
71907;BME280;59781;52.090;5.030;2024-01-30T12:36:34;102648.16;;;10.44;100.00
71907;BME280;59781;52.090;5.030;2024-01-30T12:39:01;102657.91;;;10.56;100.00
71907;BME280;59781;52.090;5.030;2024-01-30T12:41:26;102664.06;;;10.36;100.00
71907;BME280;59781;52.090;5.030;2024-01-30T12:43:57;102676.44;;;10.27;100.00
71907;BME280;59781;52.090;5.030;2024-01-30T12:46:27;102673.56;;;10.51;100.00